createdAt,value
2023-03-22T00:03:17.550Z,9.00
2023-03-22T00:07:28.448Z,8.80
2023-03-22T00:11:33.476Z,8.80
2023-03-22T00:15:39.762Z,8.70
2023-03-22T00:19:45.251Z,8.60
2023-03-22T00:23:48.968Z,8.60
2023-03-22T00:27:54.421Z,8.50
2023-03-22T00:31:58.059Z,8.50
2023-03-22T00:36:52.208Z,8.40
2023-03-22T00:41:24.113Z,8.30
2023-03-22T00:45:29.203Z,8.30
2023-03-22T00:49:32.808Z,8.30
2023-03-22T00:54:04.340Z,8.20
2023-03-22T00:58:09.393Z,8.20
2023-03-22T01:02:15.326Z,8.20
2023-03-22T01:06:39.196Z,8.30
2023-03-22T01:10:44.840Z,8.20
2023-03-22T01:14:48.505Z,8.30
2023-03-22T01:18:54.134Z,8.30
2023-03-22T01:22:58.214Z,8.30
2023-03-22T01:27:02.181Z,8.30
2023-03-22T01:31:34.553Z,8.30
2023-03-22T01:35:41.259Z,8.30
2023-03-22T01:39:49.643Z,8.30
2023-03-22T01:44:21.355Z,8.30
2023-03-22T01:48:28.480Z,8.30
2023-03-22T01:52:33.724Z,8.30
2023-03-22T01:56:54.365Z,8.30
2023-03-22T02:01:41.228Z,8.30
2023-03-22T02:05:45.914Z,8.30
2023-03-22T02:09:52.216Z,8.20
2023-03-22T02:14:27.484Z,8.30
2023-03-22T02:19:18.761Z,8.30
2023-03-22T02:23:44.597Z,8.30
2023-03-22T02:28:20.857Z,8.30
2023-03-22T02:32:49.873Z,8.30
2023-03-22T02:37:27.580Z,8.30
2023-03-22T02:42:22.598Z,8.40
2023-03-22T02:46:52.345Z,8.40
2023-03-22T02:51:08.802Z,8.40
2023-03-22T02:59:53.203Z,8.50
2023-03-22T03:04:01.356Z,8.50
2023-03-22T03:08:05.933Z,8.50
2023-03-22T03:12:19.305Z,8.50
2023-03-22T03:16:27.650Z,8.50
2023-03-22T03:21:00.505Z,8.50
2023-03-22T03:25:18.459Z,8.50
2023-03-22T03:29:31.868Z,8.60
2023-03-22T03:33:37.208Z,8.60
2023-03-22T03:37:47.370Z,8.60
2023-03-22T03:41:53.950Z,8.50
2023-03-22T03:45:58.479Z,8.50
2023-03-22T03:50:52.531Z,8.50
2023-03-22T03:54:58.345Z,8.50
2023-03-22T03:59:16.052Z,8.40
2023-03-22T04:03:20.187Z,8.30
2023-03-22T04:07:40.640Z,8.30
2023-03-22T04:12:41.017Z,8.30
2023-03-22T04:16:51.547Z,8.30
2023-03-22T04:20:57.741Z,8.30
2023-03-22T04:25:04.499Z,8.40
2023-03-22T04:29:08.881Z,8.40
2023-03-22T04:33:56.355Z,8.40
2023-03-22T04:38:08.163Z,8.30
2023-03-22T04:42:12.734Z,8.40
2023-03-22T04:46:44.682Z,8.40
2023-03-22T04:50:53.711Z,8.30
2023-03-22T04:55:04.489Z,8.30
2023-03-22T04:59:11.052Z,8.20
2023-03-22T05:03:14.837Z,8.20
2023-03-22T05:07:23.450Z,8.20
2023-03-22T05:11:31.285Z,8.20
2023-03-22T05:16:32.883Z,8.20
2023-03-22T05:20:39.036Z,8.10
2023-03-22T05:24:49.385Z,8.20
2023-03-22T05:29:08.210Z,8.30
2023-03-22T05:33:32.197Z,8.30
2023-03-22T05:37:35.990Z,8.40
2023-03-22T05:41:44.899Z,8.40
2023-03-22T05:45:49.632Z,8.40
2023-03-22T05:50:11.016Z,8.50
2023-03-22T05:54:14.853Z,8.60
2023-03-22T05:58:29.101Z,8.70
2023-03-22T06:02:33.349Z,8.80
2023-03-22T06:06:37.229Z,8.80
2023-03-22T06:10:52.320Z,8.90
2023-03-22T06:14:57.610Z,8.90
2023-03-22T06:19:21.278Z,9.00
2023-03-22T06:23:25.228Z,9.10
2023-03-22T06:27:30.193Z,9.10
2023-03-22T06:31:35.769Z,9.30
2023-03-22T06:35:44.376Z,9.40
2023-03-22T06:39:52.922Z,9.60
2023-03-22T06:44:00.535Z,9.80
2023-03-22T06:54:24.848Z,10.30
2023-03-22T06:58:41.277Z,10.40
2023-03-22T07:02:45.057Z,10.60
2023-03-22T07:07:57.662Z,10.60
2023-03-22T07:12:05.486Z,10.50
2023-03-22T07:16:11.939Z,10.50
2023-03-22T07:20:20.146Z,10.50
2023-03-22T07:24:25.467Z,10.60
2023-03-22T07:28:44.853Z,10.80
2023-03-22T07:32:50.712Z,11.00
2023-03-22T07:36:57.274Z,11.00
2023-03-22T07:41:51.699Z,11.20
2023-03-22T07:45:59.828Z,11.30
2023-03-22T07:50:22.300Z,11.30
2023-03-22T07:54:46.345Z,11.50
2023-03-22T07:58:50.235Z,11.70
2023-03-22T08:02:56.560Z,11.80
2023-03-22T08:07:15.920Z,12.00
2023-03-22T08:11:29.011Z,12.20
2023-03-22T08:15:39.170Z,12.30
2023-03-22T08:19:45.542Z,12.50
2023-03-22T08:24:14.439Z,12.50
2023-03-22T08:28:38.488Z,12.80
2023-03-22T08:32:42.609Z,13.00
2023-03-22T08:36:54.326Z,13.20
2023-03-22T08:40:58.115Z,13.20
2023-03-22T08:45:31.984Z,13.60
2023-03-22T08:49:44.635Z,13.80
2023-03-22T08:54:01.090Z,14.10
2023-03-22T08:58:23.254Z,14.10
2023-03-22T09:02:45.108Z,14.10
2023-03-22T09:06:49.484Z,14.10
2023-03-22T09:10:56.625Z,14.40
2023-03-22T09:15:01.115Z,14.60
2023-03-22T09:19:26.792Z,14.80
2023-03-22T09:23:30.640Z,14.80
2023-03-22T09:27:36.863Z,14.80
2023-03-22T09:31:49.141Z,14.80
2023-03-22T09:35:58.190Z,14.90
2023-03-22T09:40:02.108Z,15.00
2023-03-22T09:44:22.565Z,15.00
2023-03-22T09:48:32.741Z,15.10
2023-03-22T09:52:36.722Z,15.30
2023-03-22T09:56:41.870Z,15.60
2023-03-22T10:00:57.424Z,15.70
2023-03-22T10:05:11.567Z,15.80
2023-03-22T10:09:19.751Z,15.90
2023-03-22T10:13:33.932Z,16.00
2023-03-22T10:17:43.358Z,16.30
2023-03-22T10:21:49.820Z,16.50
2023-03-22T10:25:57.826Z,16.60
2023-03-22T10:30:27.859Z,16.50
2023-03-22T10:34:33.902Z,16.50
2023-03-22T10:38:53.735Z,16.30
2023-03-22T10:43:01.187Z,16.50
2023-03-22T10:47:08.484Z,16.70
2023-03-22T10:51:41.520Z,17.00
2023-03-22T10:55:46.563Z,17.20
2023-03-22T10:59:52.689Z,17.20
2023-03-22T11:03:59.677Z,17.40
2023-03-22T11:08:06.945Z,17.60
2023-03-22T11:12:14.855Z,17.80
2023-03-22T11:16:20.463Z,17.90
2023-03-22T11:20:24.337Z,17.90
2023-03-22T11:24:34.765Z,17.80
2023-03-22T11:28:42.512Z,17.70
2023-03-22T11:32:46.365Z,17.70
2023-03-22T11:36:57.264Z,17.60
2023-03-22T11:41:04.652Z,17.60
2023-03-22T11:45:58.960Z,18.00
2023-03-22T11:50:08.743Z,18.40
2023-03-22T11:54:36.457Z,18.80
2023-03-22T11:59:25.893Z,19.30
2023-03-22T12:08:38.745Z,19.90
2023-03-22T12:12:49.587Z,19.80
2023-03-22T12:17:00.158Z,19.60
2023-03-22T12:21:03.906Z,19.70
2023-03-22T12:25:18.422Z,19.90
2023-03-22T12:29:23.446Z,19.80
2023-03-22T12:33:31.215Z,19.60
2023-03-22T12:37:43.979Z,19.30
2023-03-22T12:41:50.390Z,19.30
2023-03-22T12:46:05.598Z,19.30
2023-03-22T12:50:17.111Z,19.20
2023-03-22T12:54:24.534Z,19.40
2023-03-22T12:58:52.049Z,19.50
2023-03-22T13:03:12.950Z,19.60
2023-03-22T13:07:39.552Z,19.50
2023-03-22T13:11:43.734Z,19.50
2023-03-22T13:16:03.058Z,19.30
2023-03-22T13:20:28.000Z,19.50
2023-03-22T13:24:33.600Z,19.80
2023-03-22T13:28:40.428Z,19.90
2023-03-22T13:32:55.326Z,20.00
2023-03-22T13:37:01.803Z,19.90
2023-03-22T13:41:44.490Z,19.70
2023-03-22T13:46:30.932Z,19.40
2023-03-22T13:50:36.038Z,19.30
2023-03-22T13:59:15.249Z,19.10
2023-03-22T14:03:29.085Z,19.40
2023-03-22T14:07:37.314Z,19.50
2023-03-22T14:11:47.537Z,19.70
2023-03-22T14:15:53.575Z,19.80
2023-03-22T14:19:59.898Z,19.90
